Latest Weather Observations for Yunta

IDS60801

Issued at 11:05 pm CDT Monday 24 November 2014 (issued every 30 minutes, with the page automatically refreshed every 10 minutes)

About weather observations | Map of weather stations | Latest weather observations for SA | Other Formats
Station Details ID: 020062 Name: YUNTA AIRSTRIP Lat: -32.57 Lon: 139.56 Height: 300.0 m
Data from the previous 72 hours. | See also: Recent months at Yunta
Date/Time
CDT
Temp
°C
App
Temp
°C
Dew
Point
Rel
Hum
%
Delta-T
°C
Wind Press
QNH
hPa
Press
MSL
hPa
Rain
since 9 am
mm
Dir
 
Spd
km/h
Gust
km/h
Spd
kts
Gust
kts
24/11:00pm 15.9 10.3 3.4 43 5.8 S 22 33 12 18 1018.3 1017.3 1.4
24/10:30pm 16.7 10.7 3.4 41 6.2 S 24 35 13 19 1017.9 1016.9 1.4
24/10:00pm 17.4 10.6 3.3 39 6.6 S 28 37 15 20 1017.3 1016.3 1.4
24/09:30pm 17.8 11.2 -3.0 24 8.6 SSW 22 32 12 17 1016.6 1015.5 1.4
24/09:00pm 18.7 11.5 -1.7 25 8.7 SSW 26 35 14 19 1016.0 1014.9 1.4
24/08:30pm 19.3 12.4 0.4 28 8.5 SW 26 37 14 20 1015.6 1014.5 1.4
24/08:00pm 20.5 13.1 4.1 34 8.0 SSW 32 44 17 24 1015.0 1014.0 1.4
24/07:30pm 22.1 14.4 5.5 34 8.4 SSW 35 48 19 26 1014.0 1012.9 1.4
24/07:00pm 23.8 16.3 4.7 29 9.6 SSW 33 46 18 25 1013.2 1012.1 1.4
24/06:30pm 24.7 16.8 4.5 27 10.2 SW 35 50 19 27 1012.5 1011.4 1.4
24/06:00pm 26.0 17.8 4.5 25 11.0 SSW 37 50 20 27 1011.8 1010.8 1.4
24/05:30pm 27.0 18.5 5.3 25 11.3 SW 39 54 21 29 1011.3 1010.3 1.4
24/05:00pm 27.8 20.0 4.8 23 11.9 SW 35 46 19 25 1011.0 1009.9 1.4
24/04:30pm 26.7 20.1 7.7 30 10.3 SW 32 41 17 22 1010.8 1009.7 1.4
24/04:00pm 28.7 22.9 7.9 27 11.4 SW 28 43 15 23 1011.0 1009.9 1.4
24/03:30pm 28.0 22.7 8.3 29 10.9 WSW 26 41 14 22 1011.1 1010.0 1.4
24/03:00pm 27.6 22.6 9.4 32 10.2 SW 26 37 14 20 1011.0 1009.9 1.2
24/02:30pm 25.9 22.5 13.7 47 7.3 WSW 24 35 13 19 1011.3 1010.3 1.2
24/02:00pm 25.2 23.2 15.5 55 5.9 WSW 20 33 11 18 1011.2 1010.1 1.2
24/01:30pm 22.7 21.3 16.5 68 3.8 WSW 19 28 10 15 1011.0 1009.9 1.2
24/01:00pm 25.0 21.8 17.2 62 4.9 W 30 43 16 23 1011.6 1010.6 0.8
24/12:44pm 25.2 20.2 16.1 57 5.6 W 37 52 20 28 1011.2 1010.1 0.2
24/12:30pm 30.3 25.2 11.8 32 10.9 W 30 43 16 23 1010.7 1009.6 0.0
24/12:10pm 30.6 25.8 11.5 30 11.2 WNW 28 48 15 26 1010.4 1009.3 0.0
24/12:00pm 31.2 26.5 12.1 31 11.4 W 28 37 15 20 1010.1 1009.0 0.0
24/11:30am 30.5 26.7 12.4 33 10.8 NW 24 37 13 20 1010.1 1009.0 0.0
24/11:00am 30.1 25.3 13.0 35 10.3 NW 30 37 16 20 1010.0 1008.9 0.0
24/10:30am 30.7 25.5 13.5 35 10.4 NNW 33 46 18 25 1010.0 1008.9 0.0
24/10:00am 29.4 24.4 14.0 39 9.4 N 33 46 18 25 1010.3 1009.2 0.0
24/09:30am 28.5 21.7 14.3 41 8.7 N 43 54 23 29 1010.3 1009.2 0.0
24/09:00am 27.8 21.4 14.4 43 8.2 N 41 57 22 31 1010.2 1009.1 0.4
24/08:30am 27.3 22.0 14.3 45 7.9 N 35 52 19 28 1009.5 1008.4 0.4
24/08:00am 26.4 20.3 14.2 47 7.4 N 39 54 21 29 1009.1 1008.0 0.4
24/07:30am 26.1 19.6 13.9 47 7.3 N 41 52 22 28 1008.5 1007.4 0.4
24/07:00am 25.2 19.0 13.7 49 6.8 N 39 59 21 32 1008.2 1007.1 0.4
24/06:30am 24.4 17.1 13.3 50 6.6 N 44 69 24 37 1008.2 1007.1 0.4
24/06:00am 24.2 17.2 13.7 52 6.2 N 43 65 23 35 1007.8 1006.7 0.4
24/05:31am 24.8 18.5 13.4 49 6.7 N 39 59 21 32 1007.4 1006.3 0.4
24/05:30am 24.8 18.6 13.7 50 6.6 N 39 56 21 30 1007.4 1006.3 0.4
24/05:16am 24.5 19.6 14.3 53 6.1 N 33 57 18 31 1007.5 1006.4 0.4
24/05:00am 23.6 18.2 14.9 58 5.2 N 37 46 20 25 1007.6 1006.5 0.4
24/04:30am 24.2 18.9 14.3 54 5.9 N 35 50 19 27 1007.8 1006.7 0.4
24/04:05am 25.2 21.0 13.4 48 7.0 N 28 50 15 27 1007.3 1006.2 0.4
24/04:00am 24.9 20.7 13.5 49 6.8 N 28 39 15 21 1007.2 1006.1 0.4
24/03:30am 23.8 19.7 13.9 54 5.9 N 28 35 15 19 1007.3 1006.2 0.4
24/03:00am 23.1 18.4 14.4 58 5.2 N 32 43 17 23 1007.4 1006.3 0.4
24/02:30am 23.3 17.9 14.0 56 5.5 N 35 48 19 26 1008.5 1007.4 0.4
24/02:03am 24.2 17.8 13.1 50 6.5 N 39 57 21 31 1008.9 1007.8 0.4
24/02:00am 24.5 17.6 12.8 48 6.8 NNE 41 57 22 31 1009.0 1007.9 0.4
24/01:47am 24.8 18.4 12.1 45 7.4 NNE 37 57 20 31 1009.3 1008.2 0.4
24/01:30am 25.5 18.6 11.7 42 8.0 N 39 54 21 29 1009.7 1008.6 0.4
24/01:13am 25.6 19.4 11.4 41 8.2 N 35 54 19 29 1009.9 1008.8 0.4
24/01:00am 25.1 20.0 10.6 40 8.2 NE 28 43 15 23 1009.8 1008.7 0.4
24/12:56am 25.2 19.9 9.9 38 8.5 NE 28 43 15 23 1009.8 1008.7 0.4
24/12:30am 24.9 22.9 10.0 39 8.3 NNE 11 19 6 10 1010.7 1009.6 0.4
24/12:00am 25.0 21.5 8.9 36 8.8 N 17 24 9 13 1011.6 1010.6 0.4
 
Date/Time
CDT
Temp
°C
App
Temp
°C
Dew
Point
Rel
Hum
%
Delta-T
°C
Wind Press
QNH
hPa
Press
MSL
hPa
Rain
since 9 am
mm
Dir
 
Spd
km/h
Gust
km/h
Spd
kts
Gust
kts
23/11:30pm 26.1 22.1 8.1 32 9.8 NNE 19 26 10 14 1010.9 1009.8 0.4
23/11:00pm 25.4 21.2 8.4 34 9.3 NE 20 28 11 15 1010.7 1009.6 0.4
23/10:30pm 25.0 21.2 8.9 36 8.8 NE 19 28 10 15 1010.3 1009.2 0.4
23/10:00pm 25.7 20.7 8.2 33 9.5 NE 24 35 13 19 1010.0 1008.9 0.4
23/09:30pm 25.8 21.0 8.8 34 9.4 NE 24 32 13 17 1010.1 1009.0 0.4
23/09:00pm 25.1 20.4 9.4 37 8.7 NE 24 33 13 18 1009.6 1008.5 0.4
23/08:30pm 24.8 20.9 10.7 41 8.0 NE 22 30 12 16 1009.5 1008.4 0.4
23/08:00pm 25.4 23.2 10.8 40 8.3 ENE 13 19 7 10 1010.0 1008.9 0.4
23/07:30pm 25.3 22.3 11.8 43 7.8 ENE 19 24 10 13 1009.1 1008.0 0.4
23/07:00pm 25.8 24.1 12.3 43 7.9 E 13 17 7 9 1009.8 1008.7 0.4
23/06:30pm 26.1 24.2 11.8 41 8.3 E 13 19 7 10 1010.0 1008.9 0.4
23/06:00pm 26.4 24.5 11.7 40 8.5 ESE 13 19 7 10 1010.0 1008.9 0.4
23/05:30pm 25.4 23.8 11.6 42 8.0 ESE 11 17 6 9 1010.9 1009.8 0.4
23/05:00pm 25.3 24.5 11.8 43 7.8 ESE 7 11 4 6 1011.4 1010.4 0.4
23/04:30pm 24.9 24.5 13.1 48 7.0 SE 7 9 4 5 1011.6 1010.6 0.4
23/04:00pm 24.7 24.6 13.9 51 6.4 S 7 13 4 7 1012.0 1010.9 0.2
23/03:30pm 25.7 26.4 14.5 50 6.8 E 4 6 2 3 1012.6 1011.5 0.0
23/03:00pm 28.1 26.1 6.2 25 11.7 SSW 6 9 3 5 1011.7 1010.7 0.0
23/02:30pm 27.9 26.0 6.6 26 11.4 N 6 7 3 4 1012.3 1011.2 0.0
23/02:00pm 27.3 26.3 7.2 28 10.8 SE 2 6 1 3 1011.7 1010.7 0.0
23/01:30pm 27.1 25.4 6.0 26 11.1 N 4 9 2 5 1013.3 1012.2 0.0
23/01:00pm 26.9 24.7 6.3 27 10.9 E 7 11 4 6 1012.9 1011.8 0.0
23/12:30pm 26.4 24.1 5.9 27 10.8 ENE 7 11 4 6 1013.2 1012.1 0.0
23/12:00pm 26.1 23.6 6.7 29 10.3 E 9 15 5 8 1013.5 1012.4 0.0
23/11:30am 25.4 22.7 7.5 32 9.6 ESE 11 17 6 9 1013.3 1012.2 0.0
23/11:00am 24.5 22.2 8.9 37 8.5 ESE 11 17 6 9 1013.1 1012.0 0.0
23/10:30am 22.7 20.6 9.8 44 7.1 SE 11 17 6 9 1013.6 1012.5 0.0
23/10:00am 20.8 18.6 9.4 48 6.2 SSE 11 19 6 10 1013.8 1012.7 0.0
23/09:30am 19.2 17.2 10.2 56 4.9 SSE 11 17 6 9 1014.4 1013.4 0.0
23/09:00am 18.3 16.7 10.2 59 4.4 SSE 9 13 5 7 1015.2 1014.2 0.0
23/08:30am 17.4 15.0 10.1 62 3.9 SSE 13 22 7 12 1014.6 1013.6 0.0
23/08:00am 17.9 15.0 9.8 59 4.3 SE 15 22 8 12 1013.6 1012.5 0.0
23/07:30am 17.3 14.2 10.2 63 3.8 SE 17 24 9 13 1012.6 1011.5 0.0
23/07:00am 16.4 13.2 10.0 66 3.4 SE 17 26 9 14 1012.4 1011.3 0.0
23/06:30am 16.4 13.6 10.0 66 3.4 SSE 15 24 8 13 1011.8 1010.8 0.0
23/06:00am 16.1 14.1 10.2 68 3.2 SSE 11 17 6 9 1011.6 1010.6 0.0
23/05:30am 16.5 13.9 10.8 69 3.1 SE 15 24 8 13 1010.9 1009.8 0.0
23/05:00am 17.1 13.9 11.2 68 3.2 SSE 19 26 10 14 1010.7 1009.6 0.0
23/04:30am 17.6 14.8 12.5 72 2.9 SSE 19 28 10 15 1010.9 1009.8 0.0
23/04:00am 18.4 17.3 13.1 71 3.0 SSE 11 19 6 10 1011.1 1010.0 0.0
23/03:30am 19.0 17.1 11.8 63 4.0 S 13 20 7 11 1010.8 1009.7 0.0
23/03:00am 19.5 16.9 12.0 62 4.2 S 17 22 9 12 1010.8 1009.7 0.0
23/02:30am 20.1 17.7 12.6 62 4.3 S 17 24 9 13 1011.2 1010.1 0.0
23/02:00am 21.0 18.3 12.9 60 4.7 S 19 24 10 13 1010.9 1009.8 0.0
23/01:30am 21.8 19.4 12.6 56 5.3 S 17 20 9 11 1010.7 1009.6 0.0
23/01:00am 22.5 19.5 11.9 51 6.0 S 19 26 10 14 1010.6 1009.5 0.0
23/12:30am 23.2 18.8 11.6 48 6.6 S 26 35 14 19 1010.5 1009.4 0.0
23/12:00am 24.2 19.7 11.5 45 7.3 S 26 35 14 19 1010.4 1009.3 0.0
 
Date/Time
CDT
Temp
°C
App
Temp
°C
Dew
Point
Rel
Hum
%
Delta-T
°C
Wind Press
QNH
hPa
Press
MSL
hPa
Rain
since 9 am
mm
Dir
 
Spd
km/h
Gust
km/h
Spd
kts
Gust
kts
22/11:30pm 25.5 21.7 9.7 37 8.8 S 20 30 11 16 1010.3 1009.2 0.0
22/11:00pm 26.7 23.1 10.4 36 9.3 S 20 28 11 15 1010.1 1009.0 0.0
22/10:30pm 27.4 23.7 10.2 34 9.8 S 20 32 11 17 1009.8 1008.7 0.0
22/10:00pm 27.9 24.3 10.6 34 9.9 S 20 33 11 18 1009.4 1008.3 0.0
22/09:30pm 28.8 24.1 10.5 32 10.5 S 26 41 14 22 1008.8 1007.7 0.0
22/09:00pm 30.0 26.4 10.5 30 11.3 S 20 32 11 17 1007.9 1006.8 0.0
22/08:30pm 31.1 27.1 10.4 28 12.0 S 22 33 12 18 1007.2 1006.1 0.0
22/08:00pm 32.3 27.1 11.5 28 12.3 S 30 44 16 24 1006.3 1005.2 0.0
22/07:30pm 33.8 26.4 9.8 23 14.0 S 39 48 21 26 1005.3 1004.1 0.0
22/07:26pm 34.3 27.8 10.2 23 14.1 S 35 48 19 26 1005.1 1003.9 0.0
22/07:12pm 37.3 29.6 7.3 16 17.0 SW 37 46 20 25 1004.5 1003.4 0.0
22/07:10pm 38.8 32.1 5.4 13 18.6 WNW 30 56 16 30 1004.0 1002.9 0.0
22/07:00pm 39.0 31.5 3.2 11 19.3 W 32 43 17 23 1004.1 1003.0 0.0
22/06:30pm 39.7 33.9 2.4 10 20.0 WNW 22 37 12 20 1003.7 1002.6 0.0
22/06:00pm 38.7 33.5 5.4 13 18.6 NW 22 32 12 17 1003.6 1002.5 0.0
22/05:30pm 39.5 33.6 6.0 13 18.9 NNW 26 37 14 20 1003.7 1002.6 0.0
22/05:00pm 39.4 33.9 5.9 13 18.8 N 24 43 13 23 1003.8 1002.7 0.0
22/04:30pm 39.1 32.4 5.7 13 18.7 N 30 41 16 22 1004.0 1002.9 0.0
22/04:13pm 38.5 31.6 6.3 14 18.1 N 32 50 17 27 1004.5 1003.4 0.0
22/04:00pm 38.3 31.1 6.1 14 18.0 N 33 50 18 27 1004.5 1003.4 0.0
22/03:30pm 38.1 31.1 7.0 15 17.7 N 33 50 18 27 1005.1 1003.9 0.0
22/03:00pm 37.1 29.2 8.0 17 16.7 N 39 59 21 32 1005.7 1004.6 0.0
22/02:30pm 36.3 29.6 8.2 18 16.1 N 33 54 18 29 1006.2 1005.1 0.0
22/02:00pm 34.9 26.4 9.3 21 14.8 N 44 57 24 31 1006.6 1005.5 0.0
22/01:39pm 35.2 28.5 9.6 21 14.9 N 35 59 19 32 1006.6 1005.5 0.0
22/01:30pm 35.0 28.1 8.7 20 15.1 N 35 50 19 27 1006.9 1005.8 0.0
22/01:00pm 34.4 28.5 8.9 21 14.6 N 30 41 16 22 1007.6 1006.5 0.0
22/12:30pm 31.7 26.8 9.8 26 12.6 N 26 33 14 18 1008.5 1007.4 0.0
22/12:00pm 30.9 24.2 9.7 27 12.2 N 35 48 19 26 1008.8 1007.7 0.0
22/11:30am 31.2 25.2 12.1 31 11.4 N 35 48 19 26 1008.3 1007.2 0.0
22/11:00am 29.0 22.6 10.6 32 10.6 N 35 48 19 26 1009.1 1008.0 0.0
22/10:30am 27.6 21.8 11.6 37 9.3 N 33 44 18 24 1008.9 1007.8 0.0
22/10:00am 29.1 23.3 9.3 29 11.2 N 30 43 16 23 1008.9 1007.8 0.0
22/09:30am 27.2 21.2 10.0 34 9.7 N 32 44 17 24 1009.2 1008.1 0.0
22/09:00am 23.2 18.5 14.2 57 5.4 N 32 43 17 23 1009.5 1008.4 0.0
22/08:30am 22.5 16.3 11.3 49 6.3 N 35 48 19 26 1010.3 1009.2 0.0
22/08:00am 22.6 16.9 9.7 44 7.1 N 30 39 16 21 1009.7 1008.6 0.0
22/07:30am 23.6 19.6 8.1 37 8.3 N 19 26 10 14 1009.4 1008.3 0.0
22/07:00am 24.1 19.6 6.8 33 9.1 N 20 28 11 15 1009.3 1008.2 0.0
22/06:30am 24.0 21.8 5.4 30 9.5 E 6 9 3 5 1008.9 1007.8 0.0
22/06:00am 22.6 20.7 5.1 32 8.9 NW 4 9 2 5 1008.5 1007.4 0.0
22/05:30am 22.2 18.5 4.7 32 8.8 ENE 13 19 7 10 1008.0 1006.9 0.0
22/05:00am 22.8 17.9 5.3 32 8.9 ENE 20 24 11 13 1007.4 1006.3 0.0
22/04:30am 24.0 18.8 5.4 30 9.6 NE 22 33 12 18 1007.6 1006.5 0.0
22/04:00am 23.2 19.5 4.7 30 9.3 NE 13 24 7 13 1008.0 1006.9 0.0
22/03:30am 22.7 18.3 2.8 27 9.7 NE 15 22 8 12 1008.2 1007.1 0.0
22/03:00am 22.7 18.1 1.7 25 10.0 ENE 15 19 8 10 1008.8 1007.7 0.0
22/02:30am 19.9 17.1 2.3 31 8.3 E 6 9 3 5 1009.1 1008.0 0.0
22/02:00am 20.2 17.8 2.1 30 8.5 E 4 7 2 4 1009.6 1008.5 0.0
22/01:30am 19.1 16.8 2.5 33 7.8 ESE 4 6 2 3 1010.0 1008.9 0.0
22/01:00am 19.8 16.9 2.6 32 8.1 ESE 7 9 4 5 1010.1 1009.0 0.0
22/12:30am 19.3 17.1 3.5 35 7.6 SSE 4 6 2 3 1010.4 1009.3 0.0
22/12:00am 22.5 20.2 2.6 27 9.6 ENE 4 7 2 4 1010.6 1009.5 0.0
 
Date/Time
CDT
Temp
°C
App
Temp
°C
Dew
Point
Rel
Hum
%
Delta-T
°C
Wind Press
QNH
hPa
Press
MSL
hPa
Rain
since 9 am
mm
Dir
 
Spd
km/h
Gust
km/h
Spd
kts
Gust
kts
21/11:30pm 21.8 18.6 3.0 29 9.1 NE 9 11 5 6 1010.7 1009.6 0.0

Other Formats:

Comma delimited format used in spreadsheet applications
http://www.bom.gov.au/fwo/IDS60801/IDS60801.94684.axf

JavaScript Object Notation format (JSON) in row-major order
http://www.bom.gov.au/fwo/IDS60801/IDS60801.94684.json